createdAt,value
2018-06-16T00:00:10.112Z,0
2018-06-16T00:01:19.853Z,0
2018-06-16T00:02:29.565Z,0
2018-06-16T00:03:39.296Z,0
2018-06-16T00:04:49.259Z,0
2018-06-16T00:05:59.289Z,0
2018-06-16T00:07:09.354Z,0
2018-06-16T00:08:19.316Z,0
2018-06-16T00:09:29.287Z,0
2018-06-16T00:10:39.269Z,0
2018-06-16T00:11:48.978Z,0
2018-06-16T00:12:58.938Z,0
2018-06-16T00:14:08.897Z,0
2018-06-16T00:15:18.862Z,0
2018-06-16T00:16:28.832Z,0
2018-06-16T00:17:38.806Z,0
2018-06-16T00:18:48.518Z,0
2018-06-16T00:19:58.479Z,0
2018-06-16T00:21:08.454Z,0
2018-06-16T00:22:18.416Z,0
2018-06-16T00:23:28.373Z,0
2018-06-16T00:24:38.349Z,0
2018-06-16T00:25:48.319Z,0
2018-06-16T00:26:57.775Z,0
2018-06-16T00:28:07.229Z,0
2018-06-16T00:29:17.203Z,0
2018-06-16T00:30:26.668Z,0
2018-06-16T00:31:36.640Z,0
2018-06-16T00:32:46.603Z,0
2018-06-16T00:33:56.572Z,0
2018-06-16T00:35:06.543Z,0
2018-06-16T00:36:16.501Z,0
2018-06-16T00:37:26.220Z,0
2018-06-16T00:38:35.679Z,0
2018-06-16T00:39:45.660Z,0
2018-06-16T00:40:55.628Z,0
2018-06-16T00:42:05.345Z,0
2018-06-16T00:43:14.803Z,0
2018-06-16T00:44:24.870Z,0
2018-06-16T00:45:34.568Z,0
2018-06-16T00:46:44.021Z,0
2018-06-16T00:47:53.993Z,0
2018-06-16T00:49:03.954Z,0
2018-06-16T00:50:13.923Z,0
2018-06-16T00:51:23.884Z,0
2018-06-16T00:52:33.615Z,0
2018-06-16T00:53:43.585Z,0
2018-06-16T00:54:53.333Z,0
2018-06-16T00:56:03.299Z,0
2018-06-16T00:57:13.277Z,0
2018-06-16T00:58:23.250Z,0
2018-06-16T00:59:33.224Z,0
2018-06-16T01:00:43.200Z,0
2018-06-16T01:01:53.182Z,0
2018-06-16T01:03:02.899Z,0
2018-06-16T01:04:12.872Z,0
2018-06-16T01:05:22.842Z,0
2018-06-16T01:06:32.816Z,0
2018-06-16T01:07:42.792Z,0
2018-06-16T01:08:52.511Z,0
2018-06-16T01:10:02.492Z,0
2018-06-16T01:11:11.944Z,0
2018-06-16T01:12:21.913Z,0
2018-06-16T01:13:31.886Z,0
2018-06-16T01:14:41.856Z,0
2018-06-16T01:15:51.561Z,0
2018-06-16T01:17:01.529Z,0
2018-06-16T01:18:11.518Z,0
2018-06-16T01:19:21.497Z,0
2018-06-16T01:20:31.466Z,0
2018-06-16T01:21:41.427Z,0
2018-06-16T01:22:51.152Z,0
2018-06-16T01:24:00.881Z,0
2018-06-16T01:25:10.847Z,0
2018-06-16T01:26:20.555Z,0
2018-06-16T01:27:30.266Z,0
2018-06-16T01:28:40.223Z,0
2018-06-16T01:29:50.201Z,0
2018-06-16T01:31:00.167Z,0
2018-06-16T01:32:10.142Z,0
2018-06-16T01:33:20.127Z,0
2018-06-16T01:34:30.095Z,0
2018-06-16T01:35:40.056Z,0
2018-06-16T01:36:50.059Z,0
2018-06-16T01:38:00.029Z,0
2018-06-16T01:39:09.992Z,0
2018-06-16T01:40:20.023Z,0
2018-06-16T01:41:29.732Z,0
2018-06-16T01:42:39.703Z,0
2018-06-16T01:43:49.406Z,0
2018-06-16T01:44:59.373Z,0
2018-06-16T01:46:09.351Z,0
2018-06-16T01:47:19.073Z,0
2018-06-16T01:48:28.785Z,0
2018-06-16T01:49:38.243Z,0
2018-06-16T01:50:48.213Z,0
2018-06-16T01:51:58.181Z,0
2018-06-16T01:53:08.158Z,0
2018-06-16T01:54:17.882Z,0
2018-06-16T01:55:27.869Z,0
2018-06-16T01:56:37.836Z,4
2018-06-16T01:57:47.556Z,4
2018-06-16T01:58:57.278Z,4
2018-06-16T02:00:07.258Z,0
2018-06-16T02:01:17.225Z,4
2018-06-16T02:02:26.936Z,4
2018-06-16T02:03:36.910Z,4
2018-06-16T02:04:46.873Z,4
2018-06-16T02:05:56.836Z,4
2018-06-16T02:07:06.813Z,8
2018-06-16T02:08:16.778Z,8
2018-06-16T02:09:26.479Z,8
2018-06-16T02:10:36.442Z,8
2018-06-16T02:11:45.882Z,16
2018-06-16T02:12:55.593Z,12
2018-06-16T02:14:05.554Z,16
2018-06-16T02:15:15.518Z,20
2018-06-16T02:16:25.488Z,20
2018-06-16T02:17:35.457Z,28
2018-06-16T02:18:44.894Z,28
2018-06-16T02:19:54.600Z,32
2018-06-16T02:21:04.306Z,36
2018-06-16T02:22:14.015Z,40
2018-06-16T02:23:23.979Z,44
2018-06-16T02:24:33.686Z,52
2018-06-16T02:25:43.664Z,56
2018-06-16T02:26:53.642Z,64
2018-06-16T02:28:03.633Z,68
2018-06-16T02:29:13.343Z,76
2018-06-16T02:30:23.301Z,88
2018-06-16T02:31:33.335Z,96
2018-06-16T02:32:43.324Z,104
2018-06-16T02:33:53.312Z,116
2018-06-16T02:35:03.294Z,128
2018-06-16T02:36:13.009Z,136
2018-06-16T02:37:22.713Z,148
2018-06-16T02:38:32.424Z,164
2018-06-16T02:39:42.397Z,176
2018-06-16T02:40:52.369Z,192
2018-06-16T02:42:02.109Z,204
2018-06-16T02:43:11.556Z,216
2018-06-16T02:44:21.527Z,232
2018-06-16T02:45:31.512Z,248
2018-06-16T02:46:41.488Z,268
2018-06-16T02:47:51.464Z,288
2018-06-16T02:49:01.460Z,304
2018-06-16T02:50:11.304Z,320
2018-06-16T02:51:21.248Z,336
2018-06-16T02:52:31.230Z,360
2018-06-16T02:53:41.220Z,384
2018-06-16T02:54:51.233Z,412
2018-06-16T02:56:00.942Z,440
2018-06-16T02:57:10.902Z,472
2018-06-16T02:58:20.884Z,500
2018-06-16T02:59:30.877Z,524
2018-06-16T03:00:40.844Z,556
2018-06-16T03:01:50.817Z,584
2018-06-16T03:03:00.526Z,616
2018-06-16T03:04:10.316Z,652
2018-06-16T03:05:20.030Z,684
2018-06-16T03:06:30.019Z,720
2018-06-16T03:07:39.995Z,756
2018-06-16T03:08:49.972Z,788
2018-06-16T03:09:59.697Z,824
2018-06-16T03:11:09.463Z,860
2018-06-16T03:12:19.147Z,900
2018-06-16T03:13:28.854Z,940
2018-06-16T03:14:38.831Z,992
2018-06-16T03:15:48.810Z,1048
2018-06-16T03:16:58.796Z,1104
2018-06-16T03:18:08.771Z,1152
2018-06-16T03:19:18.741Z,1200
2018-06-16T03:20:28.736Z,1244
2018-06-16T03:21:38.448Z,1292
2018-06-16T03:22:48.421Z,1348
2018-06-16T03:23:58.394Z,1404
2018-06-16T03:25:08.111Z,1464
2018-06-16T03:26:18.082Z,1524
2018-06-16T03:27:27.782Z,1584
2018-06-16T03:28:37.759Z,1644
2018-06-16T03:29:47.478Z,1708
2018-06-16T03:30:57.200Z,1776
2018-06-16T03:32:06.934Z,1840
2018-06-16T03:33:16.642Z,1912
2018-06-16T03:34:26.606Z,1980
2018-06-16T03:35:36.563Z,2044
2018-06-16T03:36:46.523Z,2096
2018-06-16T03:37:56.480Z,2136
2018-06-16T03:39:05.926Z,2172
2018-06-16T03:40:15.376Z,2216
2018-06-16T03:41:25.348Z,2264
2018-06-16T03:42:35.050Z,2328
2018-06-16T03:43:44.499Z,2392
2018-06-16T03:44:54.214Z,2468
2018-06-16T03:46:04.186Z,2548
2018-06-16T03:47:13.914Z,2616
2018-06-16T03:48:23.906Z,2684
2018-06-16T03:49:33.890Z,2752
2018-06-16T03:50:43.595Z,2820
2018-06-16T03:51:53.576Z,2896
2018-06-16T03:53:03.288Z,2984
2018-06-16T03:54:13.249Z,3064
2018-06-16T03:55:23.223Z,3144
2018-06-16T03:56:32.934Z,3216
2018-06-16T03:57:42.656Z,3280
2018-06-16T03:58:52.640Z,3340
2018-06-16T04:00:02.619Z,3412
2018-06-16T04:01:12.590Z,3488
2018-06-16T04:02:22.301Z,3572
2018-06-16T04:03:32.266Z,3656
2018-06-16T04:04:42.224Z,3740
2018-06-16T04:05:52.190Z,3800
2018-06-16T04:07:02.168Z,3832
2018-06-16T04:08:12.142Z,3852
2018-06-16T04:09:22.108Z,3904
2018-06-16T04:10:32.090Z,3976
2018-06-16T04:11:42.077Z,4064
2018-06-16T04:12:52.030Z,4148
2018-06-16T04:14:01.737Z,4224
2018-06-16T04:15:11.718Z,4316
2018-06-16T04:16:21.423Z,4412
2018-06-16T04:17:31.144Z,4520
2018-06-16T04:18:41.114Z,4616
2018-06-16T04:19:51.105Z,4716
2018-06-16T04:21:01.078Z,4844
2018-06-16T04:22:10.786Z,5000
2018-06-16T04:23:20.755Z,5156
2018-06-16T04:24:30.727Z,5300
2018-06-16T04:25:40.692Z,5428
2018-06-16T04:26:50.676Z,5556
2018-06-16T04:28:00.657Z,5688
2018-06-16T04:29:10.364Z,5816
2018-06-16T04:30:20.076Z,5940
2018-06-16T04:31:30.064Z,6068
2018-06-16T04:32:39.779Z,6212
2018-06-16T04:33:49.491Z,6356
2018-06-16T04:34:59.769Z,6500
2018-06-16T04:36:09.738Z,6624
2018-06-16T04:37:19.463Z,6752
2018-06-16T04:38:29.174Z,6884
2018-06-16T04:39:39.143Z,7024
2018-06-16T04:40:49.108Z,7172
2018-06-16T04:41:59.062Z,7304
2018-06-16T04:43:09.038Z,7444
2018-06-16T04:44:18.750Z,7588
2018-06-16T04:45:28.224Z,7728
2018-06-16T04:46:38.325Z,7864
2018-06-16T04:47:48.290Z,7996
2018-06-16T04:48:58.258Z,8120
2018-06-16T04:50:07.981Z,8232
2018-06-16T04:51:17.957Z,8340
2018-06-16T04:52:27.918Z,8440
2018-06-16T04:53:37.886Z,8552
2018-06-16T04:54:47.855Z,8684
2018-06-16T04:55:57.586Z,8828
2018-06-16T04:57:07.516Z,8956
2018-06-16T04:58:17.500Z,9076
2018-06-16T04:59:27.199Z,9192
2018-06-16T05:00:37.173Z,9312
2018-06-16T05:01:46.906Z,9420
2018-06-16T05:02:56.622Z,9540
2018-06-16T05:04:06.601Z,9664
2018-06-16T05:05:16.319Z,9788
2018-06-16T05:06:26.293Z,9916
2018-06-16T05:07:36.278Z,10032
2018-06-16T05:08:46.147Z,10132
2018-06-16T05:09:56.122Z,10200
2018-06-16T05:11:06.090Z,10280
2018-06-16T05:12:16.050Z,10396
2018-06-16T05:13:25.753Z,10512
2018-06-16T05:14:35.708Z,10636
2018-06-16T05:15:45.688Z,10780
2018-06-16T05:16:55.700Z,10952
2018-06-16T05:18:05.815Z,11140
2018-06-16T05:19:15.549Z,11320
2018-06-16T05:20:25.529Z,11532
2018-06-16T05:21:35.495Z,11736
2018-06-16T05:22:45.475Z,11892
2018-06-16T05:23:55.489Z,12020
2018-06-16T05:25:05.462Z,12168
2018-06-16T05:26:15.182Z,12336
2018-06-16T05:27:25.150Z,12528
2018-06-16T05:28:35.110Z,12728
2018-06-16T05:29:44.824Z,12944
2018-06-16T05:30:54.813Z,13168
2018-06-16T05:32:04.781Z,13404
2018-06-16T05:33:14.508Z,13608
2018-06-16T05:34:24.237Z,13776
2018-06-16T05:35:34.206Z,13940
2018-06-16T05:36:44.167Z,14132
2018-06-16T05:37:53.871Z,14360
2018-06-16T05:39:03.848Z,14572
2018-06-16T05:40:13.824Z,14748
2018-06-16T05:41:23.806Z,14916
2018-06-16T05:42:33.782Z,15156
2018-06-16T05:43:43.506Z,15392
2018-06-16T05:44:53.478Z,15648
2018-06-16T05:46:02.930Z,15884
2018-06-16T05:47:12.908Z,16032
2018-06-16T05:48:22.622Z,16156
2018-06-16T05:49:32.600Z,16284
2018-06-16T05:50:42.579Z,16388
2018-06-16T05:51:52.549Z,16512
2018-06-16T05:53:02.523Z,16564
2018-06-16T05:54:12.633Z,16588
2018-06-16T05:55:22.604Z,16776
2018-06-16T05:56:32.576Z,16732
2018-06-16T05:57:42.546Z,16764
2018-06-16T05:58:51.998Z,16828
2018-06-16T06:00:01.988Z,16960
2018-06-16T06:01:11.962Z,17312
2018-06-16T06:02:21.684Z,17408
2018-06-16T06:03:31.647Z,17440
2018-06-16T06:04:41.641Z,17536
2018-06-16T06:05:51.613Z,17536
2018-06-16T06:07:01.592Z,17600
2018-06-16T06:08:11.576Z,17760
2018-06-16T06:09:21.305Z,17920
2018-06-16T06:10:31.735Z,18112
2018-06-16T06:11:41.813Z,18240
2018-06-16T06:12:51.526Z,18400
2018-06-16T06:14:01.498Z,18592
2018-06-16T06:15:11.495Z,18752
2018-06-16T06:16:21.212Z,18912
2018-06-16T06:17:31.177Z,19040
2018-06-16T06:18:40.641Z,19168
2018-06-16T06:19:50.617Z,19328
2018-06-16T06:21:00.335Z,19456
2018-06-16T06:22:10.297Z,19616
2018-06-16T06:23:20.265Z,19776
2018-06-16T06:24:29.723Z,19968
2018-06-16T06:25:39.734Z,20128
2018-06-16T06:26:49.450Z,20192
2018-06-16T06:27:59.155Z,20256
2018-06-16T06:29:09.120Z,20288
2018-06-16T06:30:18.588Z,20352
2018-06-16T06:31:28.622Z,20480
2018-06-16T06:32:38.604Z,20608
2018-06-16T06:33:48.574Z,20640
2018-06-16T06:34:58.572Z,20736
2018-06-16T06:36:08.562Z,20864
2018-06-16T06:37:18.772Z,21056
2018-06-16T06:38:28.495Z,21280
2018-06-16T06:39:38.212Z,21408
2018-06-16T06:40:48.189Z,21568
2018-06-16T06:41:58.166Z,21888
2018-06-16T06:43:08.152Z,22208
2018-06-16T06:44:18.118Z,22528
2018-06-16T06:45:28.101Z,22784
2018-06-16T06:46:38.089Z,22976
2018-06-16T06:47:48.104Z,23104
2018-06-16T06:48:58.089Z,23200
2018-06-16T06:50:07.812Z,23296
2018-06-16T06:51:17.774Z,23456
2018-06-16T06:52:27.756Z,23648
2018-06-16T06:53:37.719Z,23808
2018-06-16T06:54:47.442Z,23968
2018-06-16T06:55:57.153Z,24160
2018-06-16T06:57:07.124Z,24480
2018-06-16T06:58:16.848Z,24832
2018-06-16T06:59:26.819Z,25056
2018-06-16T07:00:36.812Z,25344
2018-06-16T07:01:46.799Z,25600
2018-06-16T07:02:56.817Z,25728
2018-06-16T07:04:07.065Z,25760
2018-06-16T07:05:16.794Z,25792
2018-06-16T07:06:26.770Z,25888
2018-06-16T07:07:36.489Z,26112
2018-06-16T07:08:46.463Z,26368
2018-06-16T07:09:56.439Z,26656
2018-06-16T07:11:06.593Z,26976
2018-06-16T07:12:16.581Z,27328
2018-06-16T07:13:26.559Z,27776
2018-06-16T07:14:36.537Z,28032
2018-06-16T07:15:46.505Z,28224
2018-06-16T07:16:56.222Z,28352
2018-06-16T07:18:06.202Z,28448
2018-06-16T07:19:16.177Z,28416
2018-06-16T07:20:25.909Z,28352
2018-06-16T07:21:35.644Z,28320
2018-06-16T07:22:45.636Z,28288
2018-06-16T07:23:55.618Z,28480
2018-06-16T07:25:05.611Z,28736
2018-06-16T07:26:15.585Z,28928
2018-06-16T07:27:25.308Z,28928
2018-06-16T07:28:35.298Z,28896
2018-06-16T07:29:45.303Z,28832
2018-06-16T07:30:55.292Z,28800
2018-06-16T07:32:05.279Z,28512
2018-06-16T07:33:15.246Z,28192
2018-06-16T07:34:24.963Z,27936
2018-06-16T07:35:34.928Z,27840
2018-06-16T07:36:44.654Z,27968
2018-06-16T07:37:54.371Z,27744
2018-06-16T07:39:04.406Z,27904
2018-06-16T07:40:14.393Z,28704
2018-06-16T07:41:24.033Z,29344
2018-06-16T07:42:34.061Z,29600
2018-06-16T07:43:43.788Z,30080
2018-06-16T07:44:53.763Z,30560
2018-06-16T07:46:03.737Z,30176
2018-06-16T07:47:13.475Z,29760
2018-06-16T07:48:23.446Z,29632
2018-06-16T07:49:33.165Z,29632
2018-06-16T07:50:43.209Z,30240
2018-06-16T07:51:52.926Z,30240
2018-06-16T07:53:02.905Z,30240
2018-06-16T07:54:12.892Z,29920
2018-06-16T07:55:22.871Z,30112
2018-06-16T07:56:32.865Z,30656
2018-06-16T07:57:42.860Z,30528
2018-06-16T07:58:52.841Z,30368
2018-06-16T08:00:02.850Z,30144
2018-06-16T08:01:12.568Z,30240
2018-06-16T08:02:22.560Z,30240
2018-06-16T08:03:32.270Z,30752
2018-06-16T08:04:42.251Z,31488
2018-06-16T08:05:51.981Z,32032
2018-06-16T08:07:01.956Z,32384
2018-06-16T08:08:11.942Z,32896
2018-06-16T08:09:21.152Z,33472
2018-06-16T08:10:31.132Z,33696
2018-06-16T08:11:40.865Z,33568
2018-06-16T08:12:51.134Z,34176
2018-06-16T08:14:01.269Z,34368
2018-06-16T08:15:11.247Z,34208
2018-06-16T08:16:20.456Z,34432
2018-06-16T08:17:30.442Z,33952
2018-06-16T08:18:40.167Z,33760
2018-06-16T09:10:14.562Z,56640
2018-06-16T09:11:24.588Z,52960
2018-06-16T09:12:34.614Z,55904
2018-06-16T09:13:44.345Z,52896
2018-06-16T09:14:54.327Z,52352
2018-06-16T09:16:04.324Z,51712
2018-06-16T09:17:14.320Z,54112
2018-06-16T09:18:24.379Z,53472
2018-06-16T09:19:34.090Z,56640
2018-06-16T09:20:44.099Z,61952
2018-06-16T09:21:54.078Z,67360
2018-06-16T09:23:03.816Z,63232
2018-06-16T09:24:13.808Z,61632
2018-06-16T09:25:23.525Z,63328
2018-06-16T09:26:33.511Z,56416
2018-06-16T09:27:43.516Z,63872
2018-06-16T09:28:53.515Z,65824
2018-06-16T09:30:03.249Z,81024
2018-06-16T09:31:12.993Z,68320
2018-06-16T09:32:22.962Z,57120
2018-06-16T09:33:32.729Z,59200
2018-06-16T09:34:42.724Z,58752
2018-06-16T09:35:52.449Z,101344
2018-06-16T09:37:02.174Z,69472
2018-06-16T09:38:12.173Z,67776
2018-06-16T09:39:22.159Z,62336
2018-06-16T09:40:32.137Z,71296
2018-06-16T09:41:42.134Z,67488
2018-06-16T09:42:52.115Z,86176
2018-06-16T09:44:01.584Z,58592
2018-06-16T09:45:11.304Z,59520
2018-06-16T09:46:21.332Z,69568
2018-06-16T09:47:31.312Z,58688
2018-06-16T09:48:41.045Z,69056
2018-06-16T09:49:51.044Z,97664
2018-06-16T09:51:00.774Z,96672
2018-06-16T09:52:10.758Z,76064
2018-06-16T09:53:20.747Z,78688
2018-06-16T09:54:30.725Z,110560
2018-06-16T09:55:40.734Z,82272
2018-06-16T09:56:50.456Z,92064
2018-06-16T09:58:00.175Z,69728
2018-06-16T09:59:10.159Z,75808
2018-06-16T10:00:20.186Z,99616
2018-06-16T10:01:30.190Z,77664
2018-06-16T10:02:40.181Z,82592
2018-06-16T10:03:50.156Z,81312
2018-06-16T10:04:59.898Z,96352
2018-06-16T10:06:09.636Z,84608
2018-06-16T10:07:19.357Z,48672
2018-06-16T10:08:29.345Z,41088
2018-06-16T10:09:39.071Z,42240
2018-06-16T10:10:48.798Z,41216
2018-06-16T10:11:58.783Z,50336
2018-06-16T10:13:08.500Z,43008
2018-06-16T10:14:17.953Z,84416
2018-06-16T10:15:27.958Z,70816
2018-06-16T10:16:37.969Z,70496
2018-06-16T10:17:47.965Z,125216
2018-06-16T10:18:57.942Z,118528
2018-06-16T10:20:07.671Z,47200
2018-06-16T10:21:17.824Z,40576
2018-06-16T10:22:27.876Z,44352
2018-06-16T10:23:37.876Z,62432
2018-06-16T10:24:47.889Z,51008
2018-06-16T10:25:57.878Z,65408
2018-06-16T10:27:07.605Z,50816
2018-06-16T10:28:17.597Z,50592
2018-06-16T10:29:27.577Z,56032
2018-06-16T10:30:37.561Z,50208
2018-06-16T10:31:47.545Z,58816
2018-06-16T10:32:57.541Z,82176
2018-06-16T10:34:07.548Z,84832
2018-06-16T10:35:17.274Z,133632
2018-06-16T10:36:27.498Z,133536
2018-06-16T10:37:37.249Z,132832
2018-06-16T10:38:46.980Z,131392
2018-06-16T10:39:56.970Z,46464
2018-06-16T10:41:06.962Z,40256
2018-06-16T10:42:16.941Z,40128
2018-06-16T10:43:26.917Z,41024
2018-06-16T10:44:36.642Z,41536
2018-06-16T10:45:46.634Z,46112
2018-06-16T10:46:56.620Z,44096
2018-06-16T10:48:06.607Z,42848
2018-06-16T10:49:16.344Z,40832
2018-06-16T10:50:26.340Z,40384
2018-06-16T10:51:36.340Z,40288
2018-06-16T10:52:46.326Z,46432
2018-06-16T10:53:56.331Z,43552
2018-06-16T10:55:06.069Z,46848
2018-06-16T10:56:16.050Z,52960
2018-06-16T10:57:26.042Z,55584
2018-06-16T10:58:36.018Z,142080
2018-06-16T10:59:46.015Z,96992
2018-06-16T11:00:56.001Z,57632
2018-06-16T11:02:06.055Z,77760
2018-06-16T11:03:16.027Z,139040
2018-06-16T11:04:25.746Z,57600
2018-06-16T11:05:35.486Z,82752
2018-06-16T11:06:45.487Z,141024
2018-06-16T11:07:55.225Z,84288
2018-06-16T11:09:04.711Z,113184
2018-06-16T11:10:14.437Z,56448
2018-06-16T11:11:24.172Z,56864
2018-06-16T11:12:34.171Z,56960
2018-06-16T11:13:43.636Z,69312
2018-06-16T11:14:53.623Z,77856
2018-06-16T11:16:03.625Z,52128
2018-06-16T11:17:13.624Z,43488
2018-06-16T11:18:23.621Z,40672
2018-06-16T11:19:33.604Z,40992
2018-06-16T11:20:43.597Z,50656
2018-06-16T11:21:53.070Z,45184
2018-06-16T11:23:03.066Z,45536
2018-06-16T11:24:13.040Z,44896
2018-06-16T11:25:22.511Z,44224
2018-06-16T11:26:32.510Z,49088
2018-06-16T11:27:42.246Z,49856
2018-06-16T11:28:51.976Z,48832
2018-06-16T11:30:01.685Z,51424
2018-06-16T11:31:11.684Z,51872
2018-06-16T11:32:21.406Z,49856
2018-06-16T11:33:31.387Z,47520
2018-06-16T11:34:41.124Z,46464
2018-06-16T11:35:51.125Z,46624
2018-06-16T11:37:00.846Z,47456
2018-06-16T11:38:10.306Z,48832
2018-06-16T11:39:20.041Z,49664
2018-06-16T11:40:30.024Z,49248
2018-06-16T11:41:39.758Z,51424
2018-06-16T11:42:49.740Z,49568
2018-06-16T11:43:59.472Z,73472
2018-06-16T11:45:09.235Z,52864
2018-06-16T11:46:19.220Z,51200
2018-06-16T11:47:29.214Z,54176
2018-06-16T11:48:39.314Z,59104
2018-06-16T11:49:49.356Z,55360
2018-06-16T11:50:59.088Z,54848
2018-06-16T11:52:08.556Z,56768
2018-06-16T11:53:18.540Z,58208
2018-06-16T11:54:28.276Z,85120
2018-06-16T11:55:38.000Z,120736
2018-06-16T11:56:47.738Z,127040
2018-06-16T11:57:57.740Z,86624
2018-06-16T11:59:07.462Z,62272
2018-06-16T12:00:17.460Z,127232
2018-06-16T12:01:27.450Z,134944
2018-06-16T12:02:37.425Z,131040
2018-06-16T12:03:47.421Z,55424
2018-06-16T12:04:57.151Z,125024
2018-06-16T12:06:07.143Z,132160
2018-06-16T12:07:16.866Z,134720
2018-06-16T12:08:26.588Z,133888
2018-06-16T12:09:36.588Z,138080
2018-06-16T12:10:46.590Z,134272
2018-06-16T12:11:56.328Z,136480
2018-06-16T12:13:06.533Z,137792
2018-06-16T12:14:16.517Z,136544
2018-06-16T12:15:26.247Z,132480
2018-06-16T12:16:35.992Z,122720
2018-06-16T12:17:45.981Z,144544
2018-06-16T12:18:55.962Z,142304
2018-06-16T12:20:05.951Z,130464
2018-06-16T12:21:15.941Z,139136
2018-06-16T12:22:25.686Z,137984
2018-06-16T12:23:35.678Z,108096
2018-06-16T12:24:45.714Z,129024
2018-06-16T12:25:55.703Z,134208
2018-06-16T12:27:05.705Z,134336
2018-06-16T12:28:15.687Z,136288
2018-06-16T12:29:25.660Z,138816
2018-06-16T12:30:35.633Z,134720
2018-06-16T12:31:45.129Z,140704
2018-06-16T12:32:54.871Z,136192
2018-06-16T12:34:04.857Z,134368
2018-06-16T12:35:14.590Z,133952
2018-06-16T12:36:24.317Z,56736
2018-06-16T12:37:34.330Z,67136
2018-06-16T12:38:44.052Z,130304
2018-06-16T12:39:54.036Z,132096
2018-06-16T12:41:04.036Z,82240
2018-06-16T12:42:13.771Z,93120
2018-06-16T12:43:23.244Z,116000
2018-06-16T12:44:33.378Z,89024
2018-06-16T12:45:43.391Z,70176
2018-06-16T12:46:53.124Z,63808
2018-06-16T12:48:02.854Z,128128
2018-06-16T12:49:12.864Z,133216
2018-06-16T12:50:22.858Z,99232
2018-06-16T12:51:32.583Z,120096
2018-06-16T12:52:42.564Z,132736
2018-06-16T12:53:52.565Z,71648
2018-06-16T12:55:02.722Z,122784
2018-06-16T12:56:12.711Z,133824
2018-06-16T12:57:22.939Z,78272
2018-06-16T12:58:32.960Z,92992
2018-06-16T12:59:42.678Z,44448
2018-06-16T13:00:52.657Z,41408
2018-06-16T13:02:02.381Z,42112
2018-06-16T13:03:12.122Z,41920
2018-06-16T13:04:22.096Z,44064
2018-06-16T13:05:32.099Z,119072
2018-06-16T13:06:42.108Z,50368
2018-06-16T13:07:52.097Z,43520
2018-06-16T13:09:01.841Z,59936
2018-06-16T13:10:11.811Z,37728
2018-06-16T13:11:21.540Z,32928
2018-06-16T13:12:31.535Z,29568
2018-06-16T13:13:41.523Z,27200
2018-06-16T13:14:51.497Z,25632
2018-06-16T13:16:01.219Z,23968
2018-06-16T13:17:11.275Z,22400
2018-06-16T13:18:21.453Z,20896
2018-06-16T13:19:31.182Z,19616
2018-06-16T13:20:40.912Z,18848
2018-06-16T13:21:50.630Z,18528
2018-06-16T13:23:00.606Z,18720
2018-06-16T13:24:10.319Z,18976
2018-06-16T13:25:20.036Z,19616
2018-06-16T13:26:30.015Z,20320
2018-06-16T13:27:39.728Z,20736
2018-06-16T13:28:49.442Z,21056
2018-06-16T13:29:59.425Z,21728
2018-06-16T13:31:08.898Z,22592
2018-06-16T13:32:18.616Z,23296
2018-06-16T13:33:28.337Z,23840
2018-06-16T13:34:38.077Z,24352
2018-06-16T13:35:48.051Z,25056
2018-06-16T13:36:57.787Z,26048
2018-06-16T13:38:07.772Z,27168
2018-06-16T13:39:17.523Z,28736
2018-06-16T13:40:27.492Z,30496
2018-06-16T13:41:37.219Z,31872
2018-06-16T13:42:46.943Z,33184
2018-06-16T13:43:56.660Z,34112
2018-06-16T13:45:06.387Z,34976
2018-06-16T13:46:16.370Z,35264
2018-06-16T13:47:26.348Z,35360
2018-06-16T13:48:36.328Z,35648
2018-06-16T13:49:46.039Z,36224
2018-06-16T13:50:55.956Z,38432
2018-06-16T13:52:06.147Z,38688
2018-06-16T13:53:15.868Z,40384
2018-06-16T13:54:25.598Z,42560
2018-06-16T13:55:35.060Z,43488
2018-06-16T13:56:45.287Z,43936
2018-06-16T13:57:55.240Z,81248
2018-06-16T13:59:04.958Z,43456
2018-06-16T14:00:14.941Z,42144
2018-06-16T14:01:24.668Z,41728
2018-06-16T14:02:34.649Z,40672
2018-06-16T14:03:44.676Z,36960
2018-06-16T14:04:54.400Z,33504
2018-06-16T14:06:04.383Z,31712
2018-06-16T14:07:14.151Z,30496
2018-06-16T14:08:24.137Z,29280
2018-06-16T14:09:34.115Z,28800
2018-06-16T14:10:43.829Z,29408
2018-06-16T14:11:53.555Z,30176
2018-06-16T14:13:03.537Z,29856
2018-06-16T14:14:13.526Z,29504
2018-06-16T14:15:23.493Z,29952
2018-06-16T14:16:33.474Z,30944
2018-06-16T14:17:43.192Z,31296
2018-06-16T14:18:52.647Z,31264
2018-06-16T14:20:02.378Z,32064
2018-06-16T14:21:11.604Z,36896
2018-06-16T14:22:21.603Z,31264
2018-06-16T14:23:31.591Z,29248
2018-06-16T14:24:41.584Z,27584
2018-06-16T14:25:51.959Z,26688
2018-06-16T14:27:01.711Z,26304
2018-06-16T14:28:11.449Z,25920
2018-06-16T14:29:21.176Z,25088
2018-06-16T14:30:30.928Z,23744
2018-06-16T14:31:40.913Z,22240
2018-06-16T14:32:50.886Z,20992
2018-06-16T14:34:00.603Z,20480
2018-06-16T14:35:10.319Z,21024
2018-06-16T14:36:20.042Z,21824
2018-06-16T14:37:30.031Z,22368
2018-06-16T14:38:39.749Z,22688
2018-06-16T14:39:49.468Z,23040
2018-06-16T14:40:59.481Z,23584
2018-06-16T14:42:09.470Z,23616
2018-06-16T14:43:19.469Z,23584
2018-06-16T14:44:29.456Z,23712
2018-06-16T14:45:39.429Z,23584
2018-06-16T14:46:49.394Z,23456
2018-06-16T14:47:59.360Z,23744
2018-06-16T14:49:09.341Z,24032
2018-06-16T14:50:19.328Z,24256
2018-06-16T14:51:29.310Z,24800
2018-06-16T14:52:39.036Z,25472
2018-06-16T14:53:49.012Z,25984
2018-06-16T14:54:59.006Z,25696
2018-06-16T14:56:09.110Z,25248
2018-06-16T14:57:19.111Z,25344
2018-06-16T14:58:29.091Z,25664
2018-06-16T14:59:39.284Z,25312
2018-06-16T15:00:49.504Z,24256
2018-06-16T15:01:59.480Z,23712
2018-06-16T15:03:09.209Z,24096
2018-06-16T15:04:19.057Z,24640
2018-06-16T15:05:28.869Z,25408
2018-06-16T15:06:38.868Z,27936
2018-06-16T15:07:48.591Z,32704
2018-06-16T15:08:58.584Z,31680
2018-06-16T15:10:08.304Z,31616
2018-06-16T15:11:17.781Z,29632
2018-06-16T15:12:27.769Z,28448
2018-06-16T15:13:37.740Z,27872
2018-06-16T15:14:47.758Z,27680
2018-06-16T15:15:57.511Z,27712
2018-06-16T15:17:07.565Z,28032
2018-06-16T15:18:17.538Z,27840
2018-06-16T15:19:27.271Z,42240
2018-06-16T15:20:37.263Z,26976
2018-06-16T15:21:47.238Z,26176
2018-06-16T15:22:57.236Z,25664
2018-06-16T15:24:07.221Z,25024
2018-06-16T15:25:16.937Z,24736
2018-06-16T15:26:26.925Z,24448
2018-06-16T15:27:36.644Z,24064
2018-06-16T15:28:46.617Z,23552
2018-06-16T15:29:56.593Z,23200
2018-06-16T15:31:06.575Z,23136
2018-06-16T15:32:16.547Z,23296
2018-06-16T15:33:26.525Z,23552
2018-06-16T15:34:36.503Z,23968
2018-06-16T15:35:46.492Z,24608
2018-06-16T15:36:56.466Z,25600
2018-06-16T15:38:06.184Z,26784
2018-06-16T15:39:15.906Z,28480
2018-06-16T15:40:25.882Z,30656
2018-06-16T15:41:35.871Z,48608
2018-06-16T15:42:45.860Z,33536
2018-06-16T15:43:55.848Z,33344
2018-06-16T15:45:05.601Z,36928
2018-06-16T15:46:15.589Z,37792
2018-06-16T15:47:25.312Z,53632
2018-06-16T15:48:35.294Z,30784
2018-06-16T15:49:45.007Z,29248
2018-06-16T15:50:54.745Z,29696
2018-06-16T15:52:04.456Z,30784
2018-06-16T15:53:14.431Z,32320
2018-06-16T15:54:24.135Z,39648
2018-06-16T15:55:34.107Z,39776
2018-06-16T15:56:44.118Z,73344
2018-06-16T15:57:54.096Z,72128
2018-06-16T15:59:04.091Z,73248
2018-06-16T16:00:14.080Z,70944
2018-06-16T16:01:23.802Z,68800
2018-06-16T16:02:33.509Z,67584
2018-06-16T16:03:43.498Z,68992
2018-06-16T16:04:53.482Z,62880
2018-06-16T16:06:03.459Z,63776
2018-06-16T16:07:13.185Z,67456
2018-06-16T16:08:23.162Z,70656
2018-06-16T16:09:32.897Z,65088
2018-06-16T16:10:42.617Z,63008
2018-06-16T16:11:52.331Z,48000
2018-06-16T16:13:02.328Z,54048